createdAt,value
2023-05-16T00:00:32.176Z,24.42
2023-05-16T00:01:32.107Z,24.42
2023-05-16T00:02:32.217Z,24.41
2023-05-16T00:03:32.261Z,24.41
2023-05-16T00:04:32.371Z,24.39
2023-05-16T00:05:32.380Z,24.41
2023-05-16T00:06:32.451Z,24.41
2023-05-16T00:07:32.395Z,24.39
2023-05-16T00:08:32.425Z,24.38
2023-05-16T00:09:32.458Z,24.38
2023-05-16T00:10:32.732Z,24.39
2023-05-16T00:11:32.587Z,24.41
2023-05-16T00:12:32.626Z,24.39
2023-05-16T00:13:32.697Z,24.38
2023-05-16T00:14:32.752Z,24.38
2023-05-16T00:15:33.187Z,24.39
2023-05-16T00:16:32.897Z,24.39
2023-05-16T00:17:32.985Z,24.38
2023-05-16T00:18:33.010Z,24.39
2023-05-16T00:19:33.081Z,24.38
2023-05-16T00:20:33.215Z,24.38
2023-05-16T00:21:33.145Z,24.36
2023-05-16T00:22:33.203Z,24.38
2023-05-16T00:23:33.248Z,24.38
2023-05-16T00:24:33.315Z,24.35
2023-05-16T00:25:33.731Z,24.39
2023-05-16T00:26:33.405Z,24.39
2023-05-16T00:27:33.468Z,24.36
2023-05-16T00:28:33.558Z,24.38
2023-05-16T00:29:33.554Z,24.39
2023-05-16T00:30:33.741Z,24.39
2023-05-16T00:31:33.757Z,24.39
2023-05-16T00:32:33.830Z,24.36
2023-05-16T00:33:33.806Z,24.38
2023-05-16T00:34:34.011Z,24.35
2023-05-16T00:35:34.231Z,24.36
2023-05-16T00:36:33.983Z,24.36
2023-05-16T00:37:34.070Z,24.36
2023-05-16T00:38:34.158Z,24.38
2023-05-16T00:39:34.198Z,24.35
2023-05-16T00:40:34.228Z,24.38
2023-05-16T00:41:34.388Z,24.36
2023-05-16T00:42:34.365Z,24.36
2023-05-16T00:43:34.460Z,24.35
2023-05-16T00:44:34.417Z,24.38
2023-05-16T00:45:34.726Z,24.38
2023-05-16T00:46:34.553Z,24.36
2023-05-16T00:47:34.629Z,24.36
2023-05-16T00:48:34.613Z,24.35
2023-05-16T00:49:34.720Z,24.34
2023-05-16T00:50:34.850Z,24.36
2023-05-16T00:51:34.820Z,24.35
2023-05-16T00:52:34.877Z,24.35
2023-05-16T00:53:34.942Z,24.35
2023-05-16T00:54:34.977Z,24.35
2023-05-16T00:55:35.324Z,24.35
2023-05-16T00:56:35.100Z,24.34
2023-05-16T00:57:35.223Z,24.35
2023-05-16T00:58:35.232Z,24.36
2023-05-16T00:59:35.343Z,24.35
2023-05-16T01:00:35.325Z,24.35
2023-05-16T01:01:35.411Z,24.34
2023-05-16T01:02:35.548Z,24.35
2023-05-16T01:03:35.531Z,24.35
2023-05-16T01:04:35.570Z,24.35
2023-05-16T01:05:35.735Z,24.35
2023-05-16T01:06:35.706Z,24.35
2023-05-16T01:07:35.771Z,24.36
2023-05-16T01:08:35.772Z,24.36
2023-05-16T01:09:35.859Z,24.35
2023-05-16T01:10:36.243Z,24.35
2023-05-16T01:11:35.979Z,24.35
2023-05-16T01:12:36.051Z,24.34
2023-05-16T01:13:36.087Z,24.32
2023-05-16T01:14:36.190Z,24.34
2023-05-16T01:15:36.282Z,24.34
2023-05-16T01:16:36.365Z,24.35
2023-05-16T01:17:36.351Z,24.32
2023-05-16T01:18:36.406Z,24.34
2023-05-16T01:19:36.440Z,24.35
2023-05-16T01:20:36.743Z,24.36
2023-05-16T01:21:36.593Z,24.34
2023-05-16T01:22:36.672Z,24.34
2023-05-16T01:23:36.791Z,24.35
2023-05-16T01:24:36.790Z,24.31
2023-05-16T01:25:37.228Z,24.32
2023-05-16T01:26:36.897Z,24.34
2023-05-16T01:27:36.949Z,24.32
2023-05-16T01:28:37.023Z,24.32
2023-05-16T01:29:37.071Z,24.32
2023-05-16T01:30:37.232Z,24.34
2023-05-16T01:31:37.200Z,24.31
2023-05-16T01:32:37.241Z,24.34
2023-05-16T01:33:37.266Z,24.34
2023-05-16T01:34:37.264Z,24.32
2023-05-16T01:35:37.708Z,24.35
2023-05-16T01:36:37.397Z,24.32
2023-05-16T01:37:37.354Z,24.32
2023-05-16T01:38:37.396Z,24.31
2023-05-16T01:39:37.447Z,24.31
2023-05-16T01:40:37.712Z,24.32
2023-05-16T01:41:37.498Z,24.30
2023-05-16T01:42:37.495Z,24.34
2023-05-16T01:43:37.541Z,24.32
2023-05-16T01:44:37.570Z,24.30
2023-05-16T01:45:37.710Z,24.32
2023-05-16T01:46:37.687Z,24.32
2023-05-16T01:47:37.625Z,24.31
2023-05-16T01:48:37.617Z,24.31
2023-05-16T01:49:37.672Z,24.31
2023-05-16T01:50:37.710Z,24.31
2023-05-16T01:51:37.612Z,24.31
2023-05-16T01:52:37.678Z,24.34
2023-05-16T01:53:37.664Z,24.31
2023-05-16T01:54:37.713Z,24.30
2023-05-16T01:55:37.760Z,24.31
2023-05-16T01:56:37.758Z,24.32
2023-05-16T01:57:37.783Z,24.30
2023-05-16T01:58:37.832Z,24.28
2023-05-16T01:59:37.915Z,24.32
2023-05-16T02:00:38.339Z,24.34
2023-05-16T02:01:38.052Z,24.30
2023-05-16T02:02:38.014Z,24.30
2023-05-16T02:03:38.022Z,24.28
2023-05-16T02:04:37.966Z,24.30
2023-05-16T02:05:38.227Z,24.31
2023-05-16T02:06:37.997Z,24.31
2023-05-16T02:07:38.038Z,24.30
2023-05-16T02:08:38.078Z,24.28
2023-05-16T02:09:38.096Z,24.30
2023-05-16T02:10:38.226Z,24.31
2023-05-16T02:11:38.134Z,24.30
2023-05-16T02:12:38.142Z,24.31
2023-05-16T02:13:38.192Z,24.28
2023-05-16T02:14:38.213Z,24.28
2023-05-16T02:15:38.283Z,24.28
2023-05-16T02:16:38.251Z,24.31
2023-05-16T02:17:38.294Z,24.28
2023-05-16T02:18:38.333Z,24.30
2023-05-16T02:19:38.262Z,24.30
2023-05-16T02:20:38.274Z,24.28
2023-05-16T02:21:38.312Z,24.30
2023-05-16T02:22:38.319Z,24.30
2023-05-16T02:23:38.329Z,24.30
2023-05-16T02:24:38.324Z,24.28
2023-05-16T02:25:38.746Z,24.30
2023-05-16T02:26:38.352Z,24.31
2023-05-16T02:27:38.316Z,24.30
2023-05-16T02:28:38.339Z,24.27
2023-05-16T02:29:38.343Z,24.31
2023-05-16T02:30:38.407Z,24.28
2023-05-16T02:31:38.473Z,24.28
2023-05-16T02:32:38.395Z,24.30
2023-05-16T02:33:38.318Z,24.27
2023-05-16T02:34:38.335Z,24.30
2023-05-16T02:35:38.354Z,24.30
2023-05-16T02:36:38.307Z,24.28
2023-05-16T02:37:38.325Z,24.31
2023-05-16T02:38:38.302Z,24.28
2023-05-16T02:39:38.328Z,24.28
2023-05-16T02:40:38.766Z,24.27
2023-05-16T02:41:38.418Z,24.27
2023-05-16T02:42:38.471Z,24.28
2023-05-16T02:43:38.471Z,24.27
2023-05-16T02:44:38.482Z,24.28
2023-05-16T02:45:38.792Z,24.28
2023-05-16T02:46:38.492Z,24.28
2023-05-16T02:47:38.547Z,24.30
2023-05-16T02:48:38.454Z,24.30
2023-05-16T02:49:38.465Z,24.30
2023-05-16T02:50:38.763Z,24.27
2023-05-16T02:51:38.497Z,24.25
2023-05-16T02:52:38.483Z,24.25
2023-05-16T02:53:38.494Z,24.28
2023-05-16T02:54:38.552Z,24.25
2023-05-16T02:55:38.828Z,24.27
2023-05-16T02:56:38.526Z,24.30
2023-05-16T02:57:38.541Z,24.28
2023-05-16T02:58:38.530Z,24.28
2023-05-16T02:59:38.535Z,24.28
2023-05-16T03:00:38.514Z,24.28
2023-05-16T03:01:38.596Z,24.27
2023-05-16T03:02:38.580Z,24.25
2023-05-16T03:03:38.647Z,24.27
2023-05-16T03:04:38.515Z,24.27
2023-05-16T03:05:38.522Z,24.27
2023-05-16T03:06:38.532Z,24.27
2023-05-16T03:07:38.529Z,24.27
2023-05-16T03:08:38.515Z,24.24
2023-05-16T03:09:38.513Z,24.25
2023-05-16T03:10:38.758Z,24.27
2023-05-16T03:11:38.507Z,24.27
2023-05-16T03:12:38.508Z,24.27
2023-05-16T03:13:38.501Z,24.27
2023-05-16T03:14:38.532Z,24.25
2023-05-16T03:15:38.766Z,24.27
2023-05-16T03:16:38.652Z,24.27
2023-05-16T03:17:38.540Z,24.27
2023-05-16T03:18:38.555Z,24.25
2023-05-16T03:19:38.511Z,24.25
2023-05-16T03:20:38.776Z,24.27
2023-05-16T03:21:38.526Z,24.25
2023-05-16T03:22:38.497Z,24.24
2023-05-16T03:23:38.518Z,24.27
2023-05-16T03:24:38.500Z,24.27
2023-05-16T03:25:38.775Z,24.25
2023-05-16T03:26:38.495Z,24.25
2023-05-16T03:27:38.499Z,24.25
2023-05-16T03:28:38.502Z,24.25
2023-05-16T03:29:38.484Z,24.24
2023-05-16T03:30:38.889Z,24.24
2023-05-16T03:31:38.531Z,24.23
2023-05-16T03:32:38.530Z,24.24
2023-05-16T03:33:38.463Z,24.25
2023-05-16T03:34:38.449Z,24.24
2023-05-16T03:35:38.448Z,24.24
2023-05-16T03:36:38.469Z,24.25
2023-05-16T03:37:38.465Z,24.25
2023-05-16T03:38:38.443Z,24.25
2023-05-16T03:39:38.449Z,24.27
2023-05-16T03:40:38.439Z,24.25
2023-05-16T03:41:38.428Z,24.24
2023-05-16T03:42:38.445Z,24.25
2023-05-16T03:43:38.437Z,24.27
2023-05-16T03:44:38.416Z,24.25
2023-05-16T03:45:38.811Z,24.25
2023-05-16T03:46:38.409Z,24.24
2023-05-16T03:47:38.422Z,24.23
2023-05-16T03:48:38.384Z,24.23
2023-05-16T03:50:06.297Z,24.21
2023-05-16T03:51:06.485Z,24.24
2023-05-16T03:52:06.298Z,24.24
2023-05-16T03:53:06.297Z,24.24
2023-05-16T03:54:06.272Z,24.25
2023-05-16T03:55:06.269Z,24.24
2023-05-16T03:56:06.293Z,24.25
2023-05-16T03:57:06.276Z,24.23
2023-05-16T03:58:06.289Z,24.24
2023-05-16T03:59:06.259Z,24.23
2023-05-16T04:00:06.248Z,24.24
2023-05-16T04:01:06.500Z,24.23
2023-05-16T04:02:06.282Z,24.24
2023-05-16T04:03:06.245Z,24.24
2023-05-16T04:04:06.203Z,24.24
2023-05-16T04:05:06.260Z,24.24
2023-05-16T04:06:06.336Z,24.23
2023-05-16T04:07:06.195Z,24.24
2023-05-16T04:08:06.201Z,24.24
2023-05-16T04:09:06.172Z,24.23
2023-05-16T04:10:06.161Z,24.23
2023-05-16T04:11:06.194Z,24.24
2023-05-16T04:12:06.189Z,24.23
2023-05-16T04:13:06.187Z,24.21
2023-05-16T04:14:06.250Z,24.23
2023-05-16T04:15:06.141Z,24.24
2023-05-16T04:16:06.128Z,24.23
2023-05-16T04:17:06.263Z,24.23
2023-05-16T04:18:06.179Z,24.21
2023-05-16T04:19:06.120Z,24.24
2023-05-16T04:20:06.135Z,24.21
2023-05-16T04:21:06.101Z,24.24
2023-05-16T04:22:06.097Z,24.21
2023-05-16T04:23:06.098Z,24.21
2023-05-16T04:24:06.135Z,24.23
2023-05-16T04:25:06.075Z,24.23
2023-05-16T04:26:06.493Z,24.25
2023-05-16T04:27:06.073Z,24.23
2023-05-16T04:28:06.053Z,24.23
2023-05-16T04:29:06.054Z,24.23
2023-05-16T04:30:06.040Z,24.21
2023-05-16T04:31:06.543Z,24.23
2023-05-16T04:32:06.047Z,24.20
2023-05-16T04:33:06.136Z,24.24
2023-05-16T04:34:06.028Z,24.23
2023-05-16T04:35:06.005Z,24.21
2023-05-16T04:36:06.035Z,24.24
2023-05-16T04:37:05.992Z,24.23
2023-05-16T04:38:05.999Z,24.23
2023-05-16T04:39:05.978Z,24.21
2023-05-16T04:40:05.966Z,24.21
2023-05-16T04:41:05.978Z,24.20
2023-05-16T04:42:05.967Z,24.21
2023-05-16T04:43:05.989Z,24.20
2023-05-16T04:44:05.946Z,24.20
2023-05-16T04:45:05.948Z,24.20
2023-05-16T04:46:05.992Z,24.21
2023-05-16T04:47:05.923Z,24.21
2023-05-16T04:48:05.998Z,24.18
2023-05-16T04:49:05.921Z,24.20
2023-05-16T04:50:05.906Z,24.21
2023-05-16T04:51:05.937Z,24.23
2023-05-16T04:52:05.921Z,24.21
2023-05-16T04:53:05.909Z,24.20
2023-05-16T04:54:05.880Z,24.20
2023-05-16T04:55:05.882Z,24.18
2023-05-16T04:56:06.063Z,24.20
2023-05-16T04:57:05.910Z,24.21
2023-05-16T04:58:05.850Z,24.18
2023-05-16T04:59:05.845Z,24.20
2023-05-16T05:00:05.851Z,24.18
2023-05-16T05:01:05.867Z,24.18
2023-05-16T05:02:06.009Z,24.20
2023-05-16T05:03:05.852Z,24.21
2023-05-16T05:04:05.796Z,24.18
2023-05-16T05:05:05.920Z,24.20
2023-05-16T05:06:05.827Z,24.20
2023-05-16T05:07:05.826Z,24.18
2023-05-16T05:08:05.769Z,24.20
2023-05-16T05:09:05.769Z,24.20
2023-05-16T05:10:05.802Z,24.18
2023-05-16T05:11:05.775Z,24.18
2023-05-16T05:12:05.755Z,24.20
2023-05-16T05:13:05.783Z,24.18
2023-05-16T05:14:05.750Z,24.20
2023-05-16T05:15:05.753Z,24.18
2023-05-16T05:16:06.041Z,24.18
2023-05-16T05:17:05.771Z,24.18
2023-05-16T05:18:05.882Z,24.20
2023-05-16T05:19:05.738Z,24.20
2023-05-16T05:20:05.714Z,24.18
2023-05-16T05:21:05.719Z,24.21
2023-05-16T05:22:05.690Z,24.21
2023-05-16T05:23:05.658Z,24.18
2023-05-16T05:24:05.697Z,24.18
2023-05-16T05:25:05.653Z,24.20
2023-05-16T05:26:05.646Z,24.20
2023-05-16T05:27:05.625Z,24.20
2023-05-16T05:28:05.641Z,24.17
2023-05-16T05:29:06.590Z,24.17
2023-05-16T05:30:05.652Z,24.18
2023-05-16T05:31:05.662Z,24.20
2023-05-16T05:32:05.779Z,24.18
2023-05-16T05:33:05.710Z,24.18
2023-05-16T05:34:05.575Z,24.18
2023-05-16T05:35:05.575Z,24.18
2023-05-16T05:36:06.030Z,24.20
2023-05-16T05:37:05.569Z,24.18
2023-05-16T05:38:05.598Z,24.21
2023-05-16T05:39:05.605Z,24.20
2023-05-16T05:40:05.568Z,24.20
2023-05-16T05:41:06.030Z,24.21
2023-05-16T05:42:05.577Z,24.21
2023-05-16T05:43:05.533Z,24.18
2023-05-16T05:44:05.539Z,24.20
2023-05-16T05:45:05.530Z,24.18
2023-05-16T05:46:05.575Z,24.20
2023-05-16T05:47:05.521Z,24.20
2023-05-16T05:48:05.570Z,24.21
2023-05-16T05:49:05.504Z,24.21
2023-05-16T05:50:05.509Z,24.21
2023-05-16T05:51:05.498Z,24.20
2023-05-16T05:52:05.501Z,24.21
2023-05-16T05:53:05.473Z,24.21
2023-05-16T05:54:05.485Z,24.21
2023-05-16T05:55:05.474Z,24.23
2023-05-16T05:56:05.552Z,24.23
2023-05-16T05:57:05.476Z,24.21
2023-05-16T05:58:07.048Z,24.18
2023-05-16T05:59:05.454Z,24.21
2023-05-16T06:00:05.450Z,24.23
2023-05-16T06:01:05.518Z,24.20
2023-05-16T06:02:05.460Z,24.20
2023-05-16T06:03:05.500Z,24.20
2023-05-16T06:04:05.432Z,24.18
2023-05-16T06:05:05.448Z,24.20
2023-05-16T06:06:05.430Z,24.18
2023-05-16T06:07:05.419Z,24.20
2023-05-16T06:08:05.379Z,24.23
2023-05-16T06:09:05.390Z,24.18
2023-05-16T06:10:05.503Z,24.20
2023-05-16T06:11:05.379Z,24.20
2023-05-16T06:12:05.363Z,24.20
2023-05-16T06:13:05.385Z,24.18
2023-05-16T06:14:05.371Z,24.20
2023-05-16T06:15:05.365Z,24.20
2023-05-16T06:16:07.012Z,24.21
2023-05-16T06:17:05.411Z,24.18
2023-05-16T06:18:05.385Z,24.20
2023-05-16T06:19:05.396Z,24.17
2023-05-16T06:20:05.327Z,24.18
2023-05-16T06:21:05.554Z,24.21
2023-05-16T06:22:05.302Z,24.18
2023-05-16T06:23:05.305Z,24.20
2023-05-16T06:24:05.267Z,24.18
2023-05-16T06:25:05.289Z,24.21
2023-05-16T06:26:05.560Z,24.20
2023-05-16T06:27:05.293Z,24.20
2023-05-16T06:28:05.283Z,24.20
2023-05-16T06:29:05.258Z,24.20
2023-05-16T06:30:05.252Z,24.20
2023-05-16T06:31:05.285Z,24.18
2023-05-16T06:32:05.233Z,24.17
2023-05-16T06:33:05.267Z,24.18
2023-05-16T06:34:05.225Z,24.18
2023-05-16T06:35:05.228Z,24.20
2023-05-16T06:36:05.201Z,24.18
2023-05-16T06:37:05.237Z,24.20
2023-05-16T06:38:05.207Z,24.20
2023-05-16T06:39:05.235Z,24.20
2023-05-16T06:40:05.191Z,24.17
2023-05-16T06:41:05.585Z,24.20
2023-05-16T06:42:05.178Z,24.18
2023-05-16T06:43:05.174Z,24.20
2023-05-16T06:44:05.179Z,24.17
2023-05-16T06:45:05.163Z,24.18
2023-05-16T06:46:05.320Z,24.16
2023-05-16T06:47:05.188Z,24.17
2023-05-16T06:48:05.194Z,24.17
2023-05-16T06:49:05.141Z,24.14
2023-05-16T06:50:05.137Z,24.17
2023-05-16T06:51:05.557Z,24.18
2023-05-16T06:52:05.152Z,24.17
2023-05-16T06:53:05.108Z,24.17
2023-05-16T06:54:05.078Z,24.20
2023-05-16T06:55:05.085Z,24.17
2023-05-16T06:56:05.562Z,24.18
2023-05-16T06:57:05.092Z,24.18
2023-05-16T06:58:05.072Z,24.20
2023-05-16T06:59:05.098Z,24.18
2023-05-16T07:00:05.065Z,24.18
2023-05-16T07:01:05.130Z,24.20
2023-05-16T07:02:05.073Z,24.20
2023-05-16T07:03:05.237Z,24.20
2023-05-16T07:04:05.159Z,24.17
2023-05-16T07:05:05.120Z,24.18
2023-05-16T07:06:05.550Z,24.17
2023-05-16T07:07:05.024Z,24.18
2023-05-16T07:08:07.569Z,24.18
2023-05-16T07:09:05.003Z,24.16
2023-05-16T07:10:04.985Z,24.16
2023-05-16T07:11:05.058Z,24.18
2023-05-16T07:12:04.988Z,24.18
2023-05-16T07:13:05.010Z,24.18
2023-05-16T07:14:04.970Z,24.20
2023-05-16T07:15:04.961Z,24.20
2023-05-16T07:16:05.112Z,24.17
2023-05-16T07:17:05.008Z,24.18
2023-05-16T07:18:05.024Z,24.17
2023-05-16T07:19:05.041Z,24.17
2023-05-16T07:20:05.560Z,24.20
2023-05-16T07:21:05.050Z,24.20
2023-05-16T07:22:04.957Z,24.18
2023-05-16T07:23:04.919Z,24.18
2023-05-16T07:24:04.926Z,24.18
2023-05-16T07:25:04.956Z,24.20
2023-05-16T07:26:04.918Z,24.21
2023-05-16T07:27:04.874Z,24.17
2023-05-16T07:28:04.892Z,24.18
2023-05-16T07:29:04.870Z,24.20
2023-05-16T07:30:04.879Z,24.17
2023-05-16T07:31:04.864Z,24.17
2023-05-16T07:32:04.925Z,24.18
2023-05-16T07:33:04.891Z,24.17
2023-05-16T07:34:04.850Z,24.17
2023-05-16T07:35:04.824Z,24.18
2023-05-16T07:36:15.986Z,24.18
2023-05-16T07:37:05.848Z,24.18
2023-05-16T07:38:04.819Z,24.17
2023-05-16T07:39:04.831Z,24.17
2023-05-16T07:40:04.808Z,24.18
2023-05-16T07:41:04.839Z,24.20
2023-05-16T07:42:04.776Z,24.17
2023-05-16T07:43:04.778Z,24.16
2023-05-16T07:44:04.804Z,24.17
2023-05-16T07:45:04.772Z,24.17
2023-05-16T07:46:04.812Z,24.18
2023-05-16T07:47:04.748Z,24.17
2023-05-16T07:48:04.764Z,24.17
2023-05-16T07:49:04.767Z,24.18
2023-05-16T07:50:04.706Z,24.17
2023-05-16T07:51:05.101Z,24.17
2023-05-16T07:52:04.715Z,24.20
2023-05-16T07:53:04.705Z,24.18
2023-05-16T07:54:04.720Z,24.18
2023-05-16T07:55:04.730Z,24.20
2023-05-16T07:56:04.681Z,24.20
2023-05-16T07:57:04.687Z,24.18
2023-05-16T07:58:04.679Z,24.20
2023-05-16T07:59:04.721Z,24.18
2023-05-16T08:00:04.658Z,24.21
2023-05-16T08:01:05.097Z,24.18
2023-05-16T08:02:04.748Z,24.18
2023-05-16T08:03:04.775Z,24.18
2023-05-16T08:04:04.700Z,24.20
2023-05-16T08:05:04.652Z,24.18
2023-05-16T08:06:05.263Z,24.18
2023-05-16T08:07:04.614Z,24.20
2023-05-16T08:08:04.619Z,24.20
2023-05-16T08:09:04.612Z,24.20
2023-05-16T08:10:04.578Z,24.20
2023-05-16T08:11:05.069Z,24.18
2023-05-16T08:12:04.617Z,24.20
2023-05-16T08:13:04.588Z,24.17
2023-05-16T08:14:04.586Z,24.17
2023-05-16T08:15:04.555Z,24.20
2023-05-16T08:16:04.592Z,24.20
2023-05-16T08:17:04.550Z,24.18
2023-05-16T08:18:05.556Z,24.20
2023-05-16T08:19:04.582Z,24.18
2023-05-16T08:20:04.558Z,24.18
2023-05-16T08:21:04.552Z,24.17
2023-05-16T08:22:04.552Z,24.18
2023-05-16T08:23:04.540Z,24.18
2023-05-16T08:24:04.517Z,24.21
2023-05-16T08:25:04.523Z,24.18
2023-05-16T08:26:04.606Z,24.20
2023-05-16T08:27:04.513Z,24.18
2023-05-16T08:28:04.512Z,24.18
2023-05-16T08:29:04.471Z,24.18
2023-05-16T08:30:04.490Z,24.23
2023-05-16T08:31:04.615Z,24.23
2023-05-16T08:32:04.478Z,24.20
2023-05-16T08:33:04.574Z,24.18
2023-05-16T08:34:04.447Z,24.20
2023-05-16T08:35:04.456Z,24.18
2023-05-16T08:36:04.441Z,24.20
2023-05-16T08:37:04.446Z,24.20
2023-05-16T08:38:04.445Z,24.21
2023-05-16T08:39:04.457Z,24.23
2023-05-16T08:40:04.447Z,24.21
2023-05-16T08:41:04.602Z,24.21
2023-05-16T08:42:04.448Z,24.23
2023-05-16T08:43:04.423Z,24.20
2023-05-16T08:44:04.427Z,24.21
2023-05-16T08:45:04.433Z,24.21
2023-05-16T08:46:04.427Z,24.23
2023-05-16T08:47:04.517Z,24.24
2023-05-16T08:48:04.467Z,24.24
2023-05-16T08:49:04.410Z,24.24
2023-05-16T08:50:04.458Z,24.23
2023-05-16T08:51:04.585Z,24.25
2023-05-16T08:52:04.420Z,24.24
2023-05-16T08:53:04.418Z,24.23
2023-05-16T08:54:04.426Z,24.24
2023-05-16T08:55:10.132Z,24.24
2023-05-16T08:56:05.391Z,24.24
2023-05-16T08:57:04.366Z,24.24
2023-05-16T08:58:04.395Z,24.23
2023-05-16T08:59:04.405Z,24.27
2023-05-16T09:00:04.367Z,24.27
2023-05-16T09:01:04.684Z,24.27
2023-05-16T09:02:04.351Z,24.27
2023-05-16T09:03:04.427Z,24.30
2023-05-16T09:04:04.437Z,24.27
2023-05-16T09:05:04.333Z,24.27
2023-05-16T09:06:06.066Z,24.30
2023-05-16T09:07:04.319Z,24.27
2023-05-16T09:08:04.329Z,24.30
2023-05-16T09:09:04.325Z,24.28
2023-05-16T09:10:04.369Z,24.28
2023-05-16T09:11:04.608Z,24.28
2023-05-16T09:12:04.287Z,24.28
2023-05-16T09:13:04.318Z,24.31
2023-05-16T09:14:04.315Z,24.27
2023-05-16T09:15:04.269Z,24.30
2023-05-16T09:16:04.631Z,24.30
2023-05-16T09:17:04.330Z,24.28
2023-05-16T09:18:04.415Z,24.30
2023-05-16T09:19:04.361Z,24.31
2023-05-16T09:20:04.256Z,24.28
2023-05-16T09:21:04.252Z,24.30
2023-05-16T09:22:04.245Z,24.28
2023-05-16T09:23:04.242Z,24.30
2023-05-16T09:24:04.224Z,24.28
2023-05-16T09:25:05.714Z,24.27
2023-05-16T09:26:04.654Z,24.27
2023-05-16T09:27:04.214Z,24.27
2023-05-16T09:28:04.212Z,24.28
2023-05-16T09:29:04.188Z,24.28
2023-05-16T09:30:04.209Z,24.30
2023-05-16T09:31:04.684Z,24.25
2023-05-16T09:32:04.176Z,24.27
2023-05-16T09:33:04.293Z,24.27
2023-05-16T09:34:04.173Z,24.27
2023-05-16T09:35:04.167Z,24.27
2023-05-16T09:36:04.639Z,24.25
2023-05-16T09:37:04.153Z,24.28
2023-05-16T09:38:04.229Z,24.25
2023-05-16T09:39:04.147Z,24.25
2023-05-16T09:40:04.144Z,24.27
2023-05-16T09:41:04.625Z,24.25
2023-05-16T09:42:04.108Z,24.24
2023-05-16T09:43:04.141Z,24.24
2023-05-16T09:44:04.137Z,24.24
2023-05-16T09:45:04.119Z,24.25
2023-05-16T09:46:04.185Z,24.25
2023-05-16T09:47:04.103Z,24.28
2023-05-16T09:48:04.146Z,24.25
2023-05-16T09:49:04.104Z,24.25
2023-05-16T09:50:04.115Z,24.25
2023-05-16T09:51:04.301Z,24.25
2023-05-16T09:52:04.114Z,24.25
2023-05-16T09:53:04.080Z,24.25
2023-05-16T09:54:04.218Z,24.27
2023-05-16T09:55:04.050Z,24.25
2023-05-16T09:56:04.026Z,24.25
2023-05-16T09:57:04.032Z,24.24
2023-05-16T09:58:04.021Z,24.28
2023-05-16T09:59:04.008Z,24.25
2023-05-16T10:00:04.011Z,24.25
2023-05-16T10:01:04.110Z,24.25
2023-05-16T10:02:04.028Z,24.27
2023-05-16T10:03:05.767Z,24.25
2023-05-16T10:04:04.189Z,24.25
2023-05-16T10:05:04.027Z,24.24
2023-05-16T10:06:04.042Z,24.24
2023-05-16T10:07:03.976Z,24.25
2023-05-16T10:08:04.047Z,24.27
2023-05-16T10:09:03.973Z,24.25
2023-05-16T10:10:04.022Z,24.24
2023-05-16T10:11:03.990Z,24.25
2023-05-16T10:12:03.997Z,24.25
2023-05-16T10:13:04.012Z,24.25
2023-05-16T10:14:06.009Z,24.25
2023-05-16T10:15:03.993Z,24.23
2023-05-16T10:16:04.019Z,24.24
2023-05-16T10:17:03.984Z,24.24
2023-05-16T10:18:04.101Z,24.24
2023-05-16T10:19:04.047Z,24.24
2023-05-16T10:20:03.972Z,24.25
2023-05-16T10:21:03.984Z,24.25
2023-05-16T10:22:03.959Z,24.23
2023-05-16T10:23:03.994Z,24.25
2023-05-16T10:24:03.931Z,24.24
2023-05-16T10:25:03.912Z,24.25
2023-05-16T10:26:04.118Z,24.25
2023-05-16T10:27:03.929Z,24.27
2023-05-16T10:28:03.901Z,24.27
2023-05-16T10:29:03.888Z,24.25
2023-05-16T10:30:03.913Z,24.24
2023-05-16T10:31:03.897Z,24.25
2023-05-16T10:32:03.947Z,24.25
2023-05-16T10:33:03.899Z,24.24
2023-05-16T10:34:03.873Z,24.27
2023-05-16T10:35:03.855Z,24.25
2023-05-16T10:36:03.875Z,24.25
2023-05-16T10:37:03.859Z,24.24
2023-05-16T10:38:05.368Z,24.25
2023-05-16T10:39:03.899Z,24.25
2023-05-16T10:40:03.841Z,24.24
2023-05-16T10:41:04.120Z,24.23
2023-05-16T10:42:03.817Z,24.28
2023-05-16T10:43:03.819Z,24.25
2023-05-16T10:44:03.800Z,24.25
2023-05-16T10:45:05.811Z,24.24
2023-05-16T10:46:04.173Z,24.24
2023-05-16T10:47:03.883Z,24.25
2023-05-16T10:48:03.965Z,24.25
2023-05-16T10:49:03.985Z,24.24
2023-05-16T10:50:04.053Z,24.24
2023-05-16T10:51:04.343Z,24.27
2023-05-16T10:52:04.133Z,24.25
2023-05-16T10:53:04.166Z,24.25
2023-05-16T10:54:04.424Z,24.25
2023-05-16T10:55:04.255Z,24.27
2023-05-16T10:56:04.297Z,24.25
2023-05-16T10:57:04.348Z,24.24
2023-05-16T10:58:04.384Z,24.25
2023-05-16T10:59:04.368Z,24.25
2023-05-16T11:00:04.380Z,24.25
2023-05-16T11:01:04.383Z,24.24
2023-05-16T11:02:04.424Z,24.24
2023-05-16T11:03:04.536Z,24.25
2023-05-16T11:04:04.523Z,24.25
2023-05-16T11:05:04.454Z,24.25
2023-05-16T11:06:04.434Z,24.25
2023-05-16T11:07:04.403Z,24.25
2023-05-16T11:08:04.475Z,24.27
2023-05-16T11:09:04.434Z,24.27
2023-05-16T11:10:04.456Z,24.24
2023-05-16T11:11:04.433Z,24.25
2023-05-16T11:12:04.444Z,24.27
2023-05-16T11:13:04.439Z,24.27
2023-05-16T11:14:04.466Z,24.27
2023-05-16T11:15:04.384Z,24.25
2023-05-16T11:16:04.413Z,24.24
2023-05-16T11:17:04.414Z,24.25
2023-05-16T11:18:04.510Z,24.28
2023-05-16T11:19:04.501Z,24.27
2023-05-16T11:20:04.393Z,24.25
2023-05-16T11:21:04.400Z,24.27
2023-05-16T11:22:04.389Z,24.27
2023-05-16T11:23:04.384Z,24.28
2023-05-16T11:24:04.382Z,24.28
2023-05-16T11:25:04.394Z,24.25
2023-05-16T11:26:04.345Z,24.27
2023-05-16T11:27:04.337Z,24.25
2023-05-16T11:28:04.374Z,24.27
2023-05-16T11:29:04.383Z,24.27
2023-05-16T11:30:04.571Z,24.28
2023-05-16T11:31:04.379Z,24.28
2023-05-16T11:32:04.454Z,24.27
2023-05-16T11:33:04.387Z,24.27
2023-05-16T11:34:04.366Z,24.30
2023-05-16T11:35:04.375Z,24.27
2023-05-16T11:36:15.234Z,24.27
2023-05-16T11:37:05.370Z,24.27
2023-05-16T11:38:04.347Z,24.24
2023-05-16T11:39:04.364Z,24.27
2023-05-16T11:40:04.541Z,24.25
2023-05-16T11:41:04.328Z,24.27
2023-05-16T11:42:04.659Z,24.28
2023-05-16T11:43:07.089Z,24.27
2023-05-16T11:44:05.127Z,24.28
2023-05-16T11:45:04.308Z,24.28
2023-05-16T11:46:04.307Z,24.28
2023-05-16T11:47:04.427Z,24.30
2023-05-16T11:48:04.368Z,24.30
2023-05-16T11:49:04.264Z,24.31
2023-05-16T11:50:04.264Z,24.30
2023-05-16T11:51:04.263Z,24.30
2023-05-16T11:52:04.301Z,24.32
2023-05-16T11:53:05.182Z,24.34
2023-05-16T11:54:04.264Z,24.32
2023-05-16T11:55:04.243Z,24.32
2023-05-16T11:56:04.235Z,24.32
2023-05-16T11:57:04.232Z,24.31
2023-05-16T11:58:04.232Z,24.31
2023-05-16T11:59:04.236Z,24.34
2023-05-16T12:00:04.215Z,24.34
2023-05-16T12:01:04.212Z,24.34
2023-05-16T12:02:04.207Z,24.34
2023-05-16T12:03:04.292Z,24.35
2023-05-16T12:04:04.282Z,24.36
2023-05-16T12:05:04.194Z,24.34
2023-05-16T12:06:04.188Z,24.35
2023-05-16T12:07:04.152Z,24.35
2023-05-16T12:08:04.154Z,24.34
2023-05-16T12:09:04.126Z,24.34
2023-05-16T12:10:04.137Z,24.35
2023-05-16T12:11:04.137Z,24.34
2023-05-16T12:12:04.108Z,24.35
2023-05-16T12:13:04.143Z,24.36
2023-05-16T12:14:04.102Z,24.34
2023-05-16T12:15:04.112Z,24.39
2023-05-16T12:16:04.105Z,24.35
2023-05-16T12:17:04.184Z,24.35
2023-05-16T12:18:04.171Z,24.35
2023-05-16T12:19:04.097Z,24.38
2023-05-16T12:20:04.078Z,24.35
2023-05-16T12:21:04.052Z,24.34
2023-05-16T12:22:04.212Z,24.36
2023-05-16T12:23:04.057Z,24.36
2023-05-16T12:24:04.046Z,24.36
2023-05-16T12:25:04.055Z,24.36
2023-05-16T12:26:04.033Z,24.34
2023-05-16T12:27:04.099Z,24.35
2023-05-16T12:28:04.155Z,24.36
2023-05-16T12:29:04.163Z,24.38
2023-05-16T12:30:04.186Z,24.34
2023-05-16T12:31:04.240Z,24.38
2023-05-16T12:32:04.731Z,24.34
2023-05-16T12:33:07.721Z,24.36
2023-05-16T12:34:04.294Z,24.41
2023-05-16T12:35:04.269Z,24.41
2023-05-16T12:36:04.257Z,24.38
2023-05-16T12:37:04.677Z,24.38
2023-05-16T12:38:04.232Z,24.35
2023-05-16T12:39:04.280Z,24.34
2023-05-16T12:40:04.243Z,24.36
2023-05-16T12:41:04.211Z,24.35
2023-05-16T12:42:04.244Z,24.36
2023-05-16T12:43:04.217Z,24.39
2023-05-16T12:44:04.224Z,24.44
2023-05-16T12:45:04.227Z,24.39
2023-05-16T12:46:05.191Z,24.42
2023-05-16T12:47:04.705Z,24.41
2023-05-16T12:48:04.214Z,24.42
2023-05-16T12:49:04.153Z,24.47
2023-05-16T12:50:04.158Z,24.47
2023-05-16T12:51:04.163Z,24.45
2023-05-16T12:52:04.178Z,24.45
2023-05-16T12:53:04.128Z,24.50